Time;durP1;ratioP1;P1;durP2;ratioP2;P2;SDS_P1;SDS_P2;PMS_P1;PMS_P2;Temp;Humidity;BMP_temperature;BMP_pressure;BME280_temperature;BME280_humidity;BME280_pressure;Samples;Min_cycle;Max_cycle;Signal;HPM_P1;HPM_P2
2021/03/17 00:01:37;;;;;;;;;;;;;;;-144.01;100.00;62166.59;5018339;28;19917;-76
2021/03/17 00:04:22;;;;;;;;;;;;;;;-144.01;100.00;62166.59;5018335;28;20228;-76
2021/03/17 00:07:08;;;;;;;;;;;;;;;-144.01;100.00;62166.59;5017970;28;20432;-77
2021/03/17 00:09:53;;;;;;;;;;;;;;;-144.01;100.00;62166.59;5018169;28;19924;-76
2021/03/17 00:12:39;;;;;;;;;;;;;;;-144.01;100.00;62166.59;5017556;28;19914;-76
2021/03/17 00:15:26;;;;;;;;;;;;;;;-144.01;100.00;62166.59;5017898;28;20367;-76
2021/03/17 00:18:12;;;;;;;;;;;;;;;-144.01;100.00;62166.59;5000634;28;20338;-74
2021/03/17 00:20:57;;;;;;;;;;;;;;;-144.01;100.00;62166.59;5017993;28;19913;-76
2021/03/17 00:23:43;;;;;;;;;;;;;;;-144.01;100.00;62166.59;5018175;28;19921;-75
2021/03/17 00:26:29;;;;;;;;;;;;;;;-144.01;100.00;62166.59;5017543;28;19913;-77
2021/03/17 00:29:14;;;;;;;;;;;;;;;-144.01;100.00;62166.59;5016988;28;19921;-76
2021/03/17 00:32:00;;;;;;;;;;;;;;;-144.01;100.00;62166.59;5017149;28;19920;-76
2021/03/17 00:34:46;;;;;;;;;;;;;;;-144.01;100.00;62166.59;5017995;28;19917;-70
2021/03/17 00:37:32;;;;;;;;;;;;;;;-144.01;100.00;62166.59;5017791;28;19917;-72
2021/03/17 00:40:18;;;;;;;;;;;;;;;-144.01;100.00;62166.59;5016988;28;19913;-71
2021/03/17 00:43:04;;;;;;;;;;;;;;;-144.01;100.00;62166.59;5017993;28;19920;-69
2021/03/17 00:45:49;;;;;;;;;;;;;;;-144.01;100.00;62166.59;5017686;28;19920;-71
2021/03/17 00:48:25;;;;;;;;;;;;;;;-144.01;100.00;62166.59;5016921;28;20248;-66
2021/03/17 00:51:09;;;;;;;;;;;;;;;-144.01;100.00;62166.59;5017468;28;20232;-71
2021/03/17 00:53:54;;;;;;;;;;;;;;;-144.01;100.00;62166.59;5017538;28;19921;-55
2021/03/17 00:56:23;;;;;;;;;;;;;;;-144.01;100.00;62166.59;5016184;28;19925;-52
2021/03/17 00:58:58;;;;;;;;;;;;;;;-144.01;100.00;62166.59;5008800;28;19918;-53
2021/03/17 01:01:25;;;;;;;;;;;;;;;-144.01;100.00;62166.59;5006654;28;19920;-55
2021/03/17 01:03:52;;;;;;;;;;;;;;;-144.01;100.00;62166.59;5015487;28;20330;-53
2021/03/17 01:06:19;;;;;;;;;;;;;;;-144.01;100.00;62166.59;5017199;28;19924;-53
2021/03/17 01:08:46;;;;;;;;;;;;;;;-144.01;100.00;62166.59;5016934;28;19917;-53
2021/03/17 01:11:13;;;;;;;;;;;;;;;-144.01;100.00;62166.59;5014437;28;20308;-56
2021/03/17 01:13:40;;;;;;;;;;;;;;;-144.01;100.00;62166.59;5017098;28;19921;-55
2021/03/17 01:16:07;;;;;;;;;;;;;;;-144.01;100.00;62166.59;5017030;28;19925;-53
2021/03/17 01:18:34;;;;;;;;;;;;;;;-144.01;100.00;62166.59;5017128;28;20304;-53
2021/03/17 01:21:01;;;;;;;;;;;;;;;-144.01;100.00;62166.59;5016787;28;20099;-53
2021/03/17 01:23:28;;;;;;;;;;;;;;;-144.01;100.00;62166.59;5016676;28;19914;-56
2021/03/17 01:25:55;;;;;;;;;;;;;;;-144.01;100.00;62166.59;5016684;28;19918;-54
2021/03/17 01:28:22;;;;;;;;;;;;;;;-144.01;100.00;62166.59;5028087;28;20288;-57
2021/03/17 01:30:49;;;;;;;;;;;;;;;-144.01;100.00;62166.59;5028883;28;19917;-56
2021/03/17 01:33:17;;;;;;;;;;;;;;;-144.01;100.00;62166.59;5056128;28;19912;-55
2021/03/17 01:35:45;;;;;;;;;;;;;;;-144.01;100.00;62166.59;5055521;28;19917;-59
2021/03/17 01:38:12;;;;;;;;;;;;;;;-144.01;100.00;62166.59;5052173;28;19932;-56
2021/03/17 01:40:39;;;;;;;;;;;;;;;-144.01;100.00;62166.59;5034624;28;20238;-58
2021/03/17 01:43:08;;;;;;;;;;;;;;;-144.01;100.00;62166.59;5035680;28;19912;-55
2021/03/17 01:45:35;;;;;;;;;;;;;;;-144.01;100.00;62166.59;5035330;28;19913;-57
2021/03/17 01:48:01;;;;;;;;;;;;;;;-144.01;100.00;62166.59;5036158;28;19920;-56
2021/03/17 01:50:29;;;;;;;;;;;;;;;-144.01;100.00;62166.59;5036131;28;19913;-59
2021/03/17 01:52:59;;;;;;;;;;;;;;;-144.01;100.00;62166.59;5035752;28;19913;-56
2021/03/17 01:55:26;;;;;;;;;;;;;;;-144.01;100.00;62166.59;5035880;28;19917;-58
2021/03/17 01:57:53;;;;;;;;;;;;;;;-144.01;100.00;62166.59;5051442;28;19917;-58
2021/03/17 02:00:20;;;;;;;;;;;;;;;-144.01;100.00;62166.59;5035514;28;20247;-57
2021/03/17 02:02:49;;;;;;;;;;;;;;;-144.01;100.00;62166.59;5035658;28;19920;-57
2021/03/17 02:05:16;;;;;;;;;;;;;;;-144.01;100.00;62166.59;5035758;28;20330;-52
2021/03/17 02:07:43;;;;;;;;;;;;;;;-144.01;100.00;62166.59;5035542;28;19913;-54
2021/03/17 02:10:12;;;;;;;;;;;;;;;-144.01;100.00;62166.59;5035836;28;19920;-58
2021/03/17 02:13:01;;;;;;;;;;;;;;;-144.01;100.00;62166.59;5035575;28;20583;-56
2021/03/17 02:15:31;;;;;;;;;;;;;;;-144.01;100.00;62166.59;5051219;28;20239;-55
2021/03/17 02:17:59;;;;;;;;;;;;;;;-144.01;100.00;62166.59;5035752;28;19913;-57
2021/03/17 02:20:28;;;;;;;;;;;;;;;-144.01;100.00;62166.59;5035713;28;19912;-59
2021/03/17 02:23:13;;;;;;;;;;;;;;;-144.01;100.00;62166.59;5035433;28;19912;-56
2021/03/17 02:25:59;;;;;;;;;;;;;;;-144.01;100.00;62166.59;5035569;28;20245;-56
2021/03/17 02:28:29;;;;;;;;;;;;;;;-144.01;100.00;62166.59;5025041;28;19921;-58
2021/03/17 02:31:12;;;;;;;;;;;;;;;-144.01;100.00;62166.59;5016155;28;19917;-58
2021/03/17 02:33:58;;;;;;;;;;;;;;;-144.01;100.00;62166.59;5014945;28;19913;-60
2021/03/17 02:36:30;;;;;;;;;;;;;;;-144.01;100.00;62166.59;5015887;28;20288;-59
2021/03/17 02:39:02;;;;;;;;;;;;;;;-144.01;100.00;62166.59;5016149;28;19913;-59
2021/03/17 02:41:31;;;;;;;;;;;;;;;-144.01;100.00;62166.59;5016258;28;20304;-60
2021/03/17 02:43:58;;;;;;;;;;;;;;;-144.01;100.00;62166.59;5031206;28;19921;-57
2021/03/17 02:46:25;;;;;;;;;;;;;;;-144.01;100.00;62166.59;5031323;28;20235;-56
2021/03/17 02:49:00;;;;;;;;;;;;;;;-144.01;100.00;62166.59;5015697;28;19917;-57
2021/03/17 02:51:36;;;;;;;;;;;;;;;-144.01;100.00;62166.59;5031335;28;19914;-55
2021/03/17 02:54:04;;;;;;;;;;;;;;;-144.01;100.00;62166.59;5015814;28;20227;-55
2021/03/17 02:56:33;;;;;;;;;;;;;;;-144.01;100.00;62166.59;5016111;28;19917;-56
2021/03/17 02:59:00;;;;;;;;;;;;;;;-144.01;100.00;62166.59;5019521;28;19918;-54
2021/03/17 03:01:26;;;;;;;;;;;;;;;-144.01;100.00;62166.59;5018683;28;19924;-55
2021/03/17 03:03:53;;;;;;;;;;;;;;;-144.01;100.00;62166.59;5018303;28;19918;-55
2021/03/17 03:06:20;;;;;;;;;;;;;;;-144.01;100.00;62166.59;5019552;28;19921;-56
2021/03/17 03:08:47;;;;;;;;;;;;;;;-144.01;100.00;62166.59;5034511;28;20224;-57
2021/03/17 03:11:14;;;;;;;;;;;;;;;-144.01;100.00;62166.59;5018567;28;19920;-54
2021/03/17 03:13:42;;;;;;;;;;;;;;;-144.01;100.00;62166.59;5018940;28;19920;-58
2021/03/17 03:16:09;;;;;;;;;;;;;;;-144.01;100.00;62166.59;5023467;28;19924;-56
2021/03/17 03:18:36;;;;;;;;;;;;;;;-144.01;100.00;62166.59;5019156;28;20232;-54
2021/03/17 03:21:03;;;;;;;;;;;;;;;-144.01;100.00;62166.59;5019430;28;20293;-56
2021/03/17 03:23:30;;;;;;;;;;;;;;;-144.01;100.00;62166.59;5018083;28;19920;-52
2021/03/17 03:25:56;;;;;;;;;;;;;;;-144.01;100.00;62166.59;5034466;28;19921;-54
2021/03/17 03:28:23;;;;;;;;;;;;;;;-144.01;100.00;62166.59;5040071;28;19921;-54
2021/03/17 03:30:51;;;;;;;;;;;;;;;-144.01;100.00;62166.59;5018936;28;20313;-56
2021/03/17 03:33:18;;;;;;;;;;;;;;;-144.01;100.00;62166.59;5030826;28;19920;-54
2021/03/17 03:35:46;;;;;;;;;;;;;;;-144.01;100.00;62166.59;5054082;28;19921;-54
2021/03/17 03:38:13;;;;;;;;;;;;;;;-144.01;100.00;62166.59;5038142;28;19920;-55
2021/03/17 03:40:40;;;;;;;;;;;;;;;-144.01;100.00;62166.59;5038608;28;19917;-55
2021/03/17 03:43:07;;;;;;;;;;;;;;;-144.01;100.00;62166.59;5038188;28;20313;-55
2021/03/17 03:45:35;;;;;;;;;;;;;;;-144.01;100.00;62166.59;5038177;28;19924;-54
2021/03/17 03:48:05;;;;;;;;;;;;;;;-144.01;100.00;62166.59;5038407;28;19924;-55
2021/03/17 03:50:33;;;;;;;;;;;;;;;-144.01;100.00;62166.59;5038397;28;19920;-52
2021/03/17 03:53:18;;;;;;;;;;;;;;;-144.01;100.00;62166.59;5037986;28;19917;-51
2021/03/17 03:55:48;;;;;;;;;;;;;;;-144.01;100.00;62166.59;5037933;28;19928;-51
2021/03/17 03:58:23;;;;;;;;;;;;;;;-144.01;100.00;62166.59;5037859;28;19920;-52
2021/03/17 04:00:50;;;;;;;;;;;;;;;-144.01;100.00;62166.59;5037098;28;19924;-53
2021/03/17 04:03:17;;;;;;;;;;;;;;;-144.01;100.00;62166.59;5043986;28;19912;-55
2021/03/17 04:05:44;;;;;;;;;;;;;;;-144.01;100.00;62166.59;5056700;28;19920;-52
2021/03/17 04:08:12;;;;;;;;;;;;;;;-144.01;100.00;62166.59;5056398;28;19920;-52
2021/03/17 04:10:39;;;;;;;;;;;;;;;-144.01;100.00;62166.59;5057956;28;19920;-55
2021/03/17 04:13:06;;;;;;;;;;;;;;;-144.01;100.00;62166.59;5057537;28;19920;-53
2021/03/17 04:15:34;;;;;;;;;;;;;;;-144.01;100.00;62166.59;5057506;28;19921;-55
2021/03/17 04:18:19;;;;;;;;;;;;;;;-144.01;100.00;62166.59;5056983;28;19943;-51
2021/03/17 04:20:48;;;;;;;;;;;;;;;-144.01;100.00;62166.59;5057833;28;19912;-53
2021/03/17 04:23:15;;;;;;;;;;;;;;;-144.01;100.00;62166.59;5057367;28;19920;-52
2021/03/17 04:25:44;;;;;;;;;;;;;;;-144.01;100.00;62166.59;5057341;28;20255;-53
2021/03/17 04:28:11;;;;;;;;;;;;;;;-144.01;100.00;62166.59;5052393;28;19916;-55
2021/03/17 04:30:38;;;;;;;;;;;;;;;-144.01;100.00;62166.59;5040185;28;19944;-53
2021/03/17 04:33:05;;;;;;;;;;;;;;;-144.01;100.00;62166.59;5045265;28;20315;-52
2021/03/17 04:35:32;;;;;;;;;;;;;;;-144.01;100.00;62166.59;5036441;28;19921;-49
2021/03/17 04:37:59;;;;;;;;;;;;;;;-144.01;100.00;62166.59;5037523;28;19920;-56
2021/03/17 04:40:27;;;;;;;;;;;;;;;-144.01;100.00;62166.59;5036471;28;20247;-63
2021/03/17 04:42:56;;;;;;;;;;;;;;;-144.01;100.00;62166.59;5037378;28;19928;-67
2021/03/17 04:45:23;;;;;;;;;;;;;;;-144.01;100.00;62166.59;5037334;28;19913;-46
2021/03/17 04:47:51;;;;;;;;;;;;;;;-144.01;100.00;62166.59;5036439;28;19924;-44
2021/03/17 04:50:18;;;;;;;;;;;;;;;-144.01;100.00;62166.59;5037486;28;19913;-54
2021/03/17 04:52:45;;;;;;;;;;;;;;;-144.01;100.00;62166.59;5037180;28;19913;-57
2021/03/17 04:55:13;;;;;;;;;;;;;;;-144.01;100.00;62166.59;5032490;28;19924;-50
2021/03/17 04:57:40;;;;;;;;;;;;;;;-144.01;100.00;62166.59;5037182;28;20239;-50
2021/03/17 05:00:08;;;;;;;;;;;;;;;-144.01;100.00;62166.59;5020413;28;19928;-54
2021/03/17 05:02:35;;;;;;;;;;;;;;;-144.01;100.00;62166.59;5016406;28;20228;-54
2021/03/17 05:05:02;;;;;;;;;;;;;;;-144.01;100.00;62166.59;5055704;28;19919;-56
2021/03/17 05:07:29;;;;;;;;;;;;;;;-144.01;100.00;62166.59;5056677;28;19923;-54
2021/03/17 05:09:56;;;;;;;;;;;;;;;-144.01;100.00;62166.59;5055955;28;19924;-55
2021/03/17 05:12:23;;;;;;;;;;;;;;;-144.01;100.00;62166.59;5041059;28;19921;-68
2021/03/17 05:14:51;;;;;;;;;;;;;;;-144.01;100.00;62166.59;5035949;28;19913;-70
2021/03/17 05:17:33;;;;;;;;;;;;;;;-144.01;100.00;62166.59;5035448;28;19968;-70
2021/03/17 05:20:01;;;;;;;;;;;;;;;-144.01;100.00;62166.59;5033915;28;19925;-69
2021/03/17 05:22:28;;;;;;;;;;;;;;;-144.01;100.00;62166.59;5035275;28;19913;-59
2021/03/17 05:24:55;;;;;;;;;;;;;;;-144.01;100.00;62166.59;5034894;28;20335;-59
2021/03/17 05:27:22;;;;;;;;;;;;;;;-144.01;100.00;62166.59;5050341;28;20303;-62
2021/03/17 05:29:49;;;;;;;;;;;;;;;-144.01;100.00;62166.59;5003896;28;19918;-55
2021/03/17 05:32:16;;;;;;;;;;;;;;;-144.01;100.00;62166.59;4997098;28;19914;-52
2021/03/17 05:34:59;;;;;;;;;;;;;;;-144.01;100.00;62166.59;5024170;28;19913;-57
2021/03/17 05:37:26;;;;;;;;;;;;;;;-144.01;100.00;62166.59;5010453;28;20217;-54
2021/03/17 05:39:53;;;;;;;;;;;;;;;-144.01;100.00;62166.59;5016224;28;20354;-50
2021/03/17 05:42:21;;;;;;;;;;;;;;;-144.01;100.00;62166.59;5016027;28;19917;-52
2021/03/17 05:44:48;;;;;;;;;;;;;;;-144.01;100.00;62166.59;4999591;28;19917;-49
2021/03/17 05:47:15;;;;;;;;;;;;;;;-144.01;100.00;62166.59;5007231;28;19913;-48
2021/03/17 05:49:42;;;;;;;;;;;;;;;-144.01;100.00;62166.59;5003285;28;19913;-49
2021/03/17 05:52:09;;;;;;;;;;;;;;;-144.01;100.00;62166.59;5016474;28;19943;-49
2021/03/17 05:54:36;;;;;;;;;;;;;;;-144.01;100.00;62166.59;5001288;28;19914;-49
2021/03/17 05:57:03;;;;;;;;;;;;;;;-144.01;100.00;62166.59;4996349;28;19917;-50
2021/03/17 05:59:30;;;;;;;;;;;;;;;-144.01;100.00;62166.59;5008141;28;19989;-48
2021/03/17 06:01:58;;;;;;;;;;;;;;;-144.01;100.00;62166.59;5015941;28;19920;-50
2021/03/17 06:04:25;;;;;;;;;;;;;;;-144.01;100.00;62166.59;5016069;28;19913;-50
2021/03/17 06:06:52;;;;;;;;;;;;;;;-144.01;100.00;62166.59;5016014;28;19920;-48
2021/03/17 06:09:20;;;;;;;;;;;;;;;-144.01;100.00;62166.59;5015126;28;20233;-50
2021/03/17 06:11:49;;;;;;;;;;;;;;;-144.01;100.00;62166.59;5014852;28;19913;-49
2021/03/17 06:14:23;;;;;;;;;;;;;;;-144.01;100.00;62166.59;5015837;28;19920;-49
2021/03/17 06:16:53;;;;;;;;;;;;;;;-144.01;100.00;62166.59;5031395;28;19917;-51
2021/03/17 06:19:21;;;;;;;;;;;;;;;-144.01;100.00;62166.59;5015067;28;19924;-52
2021/03/17 06:21:48;;;;;;;;;;;;;;;-144.01;100.00;62166.59;5014760;28;19913;-50
2021/03/17 06:24:15;;;;;;;;;;;;;;;-144.01;100.00;62166.59;5014494;28;19913;-48
2021/03/17 06:26:43;;;;;;;;;;;;;;;-144.01;100.00;62166.59;5031366;28;19924;-48
2021/03/17 06:29:10;;;;;;;;;;;;;;;-144.01;100.00;62166.59;5014784;28;19925;-47
2021/03/17 06:31:37;;;;;;;;;;;;;;;-144.01;100.00;62166.59;5013665;28;19924;-48
2021/03/17 06:34:04;;;;;;;;;;;;;;;-144.01;100.00;62166.59;5020336;28;20232;-48
2021/03/17 06:36:31;;;;;;;;;;;;;;;-144.01;100.00;62166.59;5019995;28;19917;-48
2021/03/17 06:39:07;;;;;;;;;;;;;;;-144.01;100.00;62166.59;5020150;28;19944;-46
2021/03/17 06:41:41;;;;;;;;;;;;;;;-144.01;100.00;62166.59;5019732;28;20275;-46
2021/03/17 06:44:08;;;;;;;;;;;;;;;-144.01;100.00;62166.59;5020105;28;19921;-46
2021/03/17 06:46:35;;;;;;;;;;;;;;;-144.01;100.00;62166.59;5020096;28;19914;-49
2021/03/17 06:49:02;;;;;;;;;;;;;;;-144.01;100.00;62166.59;5019982;28;19914;-47
2021/03/17 06:51:30;;;;;;;;;;;;;;;-144.01;100.00;62166.59;5019624;28;19913;-50
2021/03/17 06:53:57;;;;;;;;;;;;;;;-144.01;100.00;62166.59;5019595;28;19913;-49
2021/03/17 06:56:26;;;;;;;;;;;;;;;-144.01;100.00;62166.59;5019533;28;19924;-47
2021/03/17 06:58:57;;;;;;;;;;;;;;;-144.01;100.00;62166.59;5011815;28;19922;-49
2021/03/17 07:01:27;;;;;;;;;;;;;;;-144.01;100.00;62166.59;5012446;28;19913;-49
2021/03/17 07:03:55;;;;;;;;;;;;;;;-144.01;100.00;62166.59;5019666;28;19921;-47
2021/03/17 07:06:22;;;;;;;;;;;;;;;-144.01;100.00;62166.59;5019504;28;19924;-47
2021/03/17 07:08:49;;;;;;;;;;;;;;;-144.01;100.00;62166.59;5019692;28;19924;-48
2021/03/17 07:11:23;;;;;;;;;;;;;;;-144.01;100.00;62166.59;5019135;28;19921;-46
2021/03/17 07:13:58;;;;;;;;;;;;;;;-144.01;100.00;62166.59;5019397;28;20324;-47
2021/03/17 07:16:46;;;;;;;;;;;;;;;-144.01;100.00;62166.59;5018823;28;19925;-47
2021/03/17 07:19:29;;;;;;;;;;;;;;;-144.01;100.00;62166.59;5019473;28;19917;-46
2021/03/17 07:22:15;;;;;;;;;;;;;;;-144.01;100.00;62166.59;5015649;28;19920;-46
2021/03/17 07:24:43;;;;;;;;;;;;;;;-144.01;100.00;62166.59;5019138;28;19921;-48
2021/03/17 07:27:13;;;;;;;;;;;;;;;-144.01;100.00;62166.59;5001750;28;19920;-47
2021/03/17 07:29:40;;;;;;;;;;;;;;;-144.01;100.00;62166.59;5018823;28;19928;-50
2021/03/17 07:32:07;;;;;;;;;;;;;;;-144.01;100.00;62166.59;5018938;28;19917;-47
2021/03/17 07:34:34;;;;;;;;;;;;;;;-144.01;100.00;62166.59;5018907;28;19928;-47
2021/03/17 07:37:04;;;;;;;;;;;;;;;-144.01;100.00;62166.59;5019172;28;19924;-47
2021/03/17 07:39:35;;;;;;;;;;;;;;;-144.01;100.00;62166.59;5018864;28;19917;-48
2021/03/17 07:42:04;;;;;;;;;;;;;;;-144.01;100.00;62166.59;5018124;28;20301;-47
2021/03/17 07:44:31;;;;;;;;;;;;;;;-144.01;100.00;62166.59;5018699;28;19944;-48
2021/03/17 07:46:59;;;;;;;;;;;;;;;-144.01;100.00;62166.59;5018989;28;19975;-49
2021/03/17 07:49:27;;;;;;;;;;;;;;;-144.01;100.00;62166.59;5017880;28;19917;-51
2021/03/17 07:51:55;;;;;;;;;;;;;;;-144.01;100.00;62166.59;5018471;28;19917;-48
2021/03/17 07:54:25;;;;;;;;;;;;;;;-144.01;100.00;62166.59;5018271;28;20307;-48
2021/03/17 07:56:52;;;;;;;;;;;;;;;-144.01;100.00;62166.59;5018637;28;19917;-47
2021/03/17 07:59:19;;;;;;;;;;;;;;;-144.01;100.00;62166.59;5029390;28;19924;-47
2021/03/17 08:01:46;;;;;;;;;;;;;;;-144.01;100.00;62166.59;5010374;28;20328;-48
2021/03/17 08:04:14;;;;;;;;;;;;;;;-144.01;100.00;62166.59;4998777;28;19918;-49
2021/03/17 08:06:41;;;;;;;;;;;;;;;-144.01;100.00;62166.59;4999022;28;19921;-49
2021/03/17 08:09:08;;;;;;;;;;;;;;;-144.01;100.00;62166.59;4997962;28;19913;-49
2021/03/17 08:11:35;;;;;;;;;;;;;;;-144.01;100.00;62166.59;4998491;28;20328;-47
2021/03/17 08:14:02;;;;;;;;;;;;;;;-144.01;100.00;62166.59;4996614;28;19913;-47
2021/03/17 08:16:31;;;;;;;;;;;;;;;-144.01;100.00;62166.59;5000972;28;19918;-49
2021/03/17 08:18:58;;;;;;;;;;;;;;;-144.01;100.00;62166.59;5017282;28;20329;-48
2021/03/17 08:22:01;;;;;;;;;;;;;;;-144.01;100.00;62166.59;5017984;28;19913;-47
2021/03/17 08:24:35;;;;;;;;;;;;;;;-144.01;100.00;62166.59;4976934;28;19918;-47
2021/03/17 08:27:13;;;;;;;;;;;;;;;-144.01;100.00;62166.59;4994888;28;19917;-48
2021/03/17 08:29:40;;;;;;;;;;;;;;;-144.01;100.00;62166.59;5031646;28;19924;-47
2021/03/17 08:32:07;;;;;;;;;;;;;;;-144.01;100.00;62166.59;5006324;28;19913;-47
2021/03/17 08:34:35;;;;;;;;;;;;;;;-144.01;100.00;62166.59;4998291;28;19918;-47
2021/03/17 08:37:03;;;;;;;;;;;;;;;-144.01;100.00;62166.59;4998372;28;20332;-47
2021/03/17 08:39:30;;;;;;;;;;;;;;;-144.01;100.00;62166.59;4998292;28;19914;-53
2021/03/17 08:42:00;;;;;;;;;;;;;;;-144.01;100.00;62166.59;4998057;28;20224;-48
2021/03/17 08:44:27;;;;;;;;;;;;;;;-144.01;100.00;62166.59;4981035;28;19920;-53
2021/03/17 08:46:56;;;;;;;;;;;;;;;-144.01;100.00;62166.59;4998139;28;19924;-47
2021/03/17 08:49:33;;;;;;;;;;;;;;;-144.01;100.00;62166.59;4998130;28;19913;-53
2021/03/17 08:52:01;;;;;;;;;;;;;;;-144.01;100.00;62166.59;4997781;28;19914;-56
2021/03/17 08:54:31;;;;;;;;;;;;;;;-144.01;100.00;62166.59;4997859;28;19914;-49
2021/03/17 08:57:04;;;;;;;;;;;;;;;-144.01;100.00;62166.59;4996847;28;19917;-51
2021/03/17 08:59:40;;;;;;;;;;;;;;;-144.01;100.00;62166.59;5005560;28;20313;-54
2021/03/17 09:02:25;;;;;;;;;;;;;;;-144.01;100.00;62166.59;5007458;28;19916;-52
2021/03/17 09:04:55;;;;;;;;;;;;;;;-144.01;100.00;62166.59;4997414;28;19921;-49
2021/03/17 09:07:22;;;;;;;;;;;;;;;-144.01;100.00;62166.59;4997658;28;19924;-56
2021/03/17 09:09:51;;;;;;;;;;;;;;;-144.01;100.00;62166.59;4996710;28;19917;-56
2021/03/17 09:12:26;;;;;;;;;;;;;;;-144.01;100.00;62166.59;4997475;28;19914;-53
2021/03/17 09:15:15;;;;;;;;;;;;;;;-144.01;100.00;62166.59;4997500;28;20301;-54
2021/03/17 09:17:46;;;;;;;;;;;;;;;-144.01;100.00;62166.59;4997454;28;20224;-58
2021/03/17 09:20:16;;;;;;;;;;;;;;;-144.01;100.00;62166.59;4997625;28;19913;-50
2021/03/17 09:22:44;;;;;;;;;;;;;;;-144.01;100.00;62166.59;4997287;28;20233;-51
2021/03/17 09:25:19;;;;;;;;;;;;;;;-144.01;100.00;62166.59;4997340;28;19913;-52
2021/03/17 09:27:49;;;;;;;;;;;;;;;-144.01;100.00;62166.59;5001665;28;20331;-50
2021/03/17 09:30:17;;;;;;;;;;;;;;;-144.01;100.00;62166.59;5035427;28;20264;-53
2021/03/17 09:32:44;;;;;;;;;;;;;;;-144.01;100.00;62166.59;5036227;28;20308;-55
2021/03/17 09:35:11;;;;;;;;;;;;;;;-144.01;100.00;62166.59;5036015;28;19913;-55
2021/03/17 09:37:38;;;;;;;;;;;;;;;-144.01;100.00;62166.59;5036231;28;19917;-51
2021/03/17 09:40:06;;;;;;;;;;;;;;;-144.01;100.00;62166.59;5036268;28;19913;-52
2021/03/17 09:42:36;;;;;;;;;;;;;;;-144.01;100.00;62166.59;5035989;28;19912;-53
2021/03/17 09:45:05;;;;;;;;;;;;;;;-144.01;100.00;62166.59;5035935;28;19920;-49
2021/03/17 09:47:32;;;;;;;;;;;;;;;-144.01;100.00;62166.59;5035991;28;19913;-53
2021/03/17 09:49:59;;;;;;;;;;;;;;;-144.01;100.00;62166.59;5036048;28;19928;-50
2021/03/17 09:52:26;;;;;;;;;;;;;;;-144.01;100.00;62166.59;5035620;28;19913;-50
2021/03/17 09:54:53;;;;;;;;;;;;;;;-144.01;100.00;62166.59;5035941;28;19920;-48
2021/03/17 09:57:22;;;;;;;;;;;;;;;-144.01;100.00;62166.59;5035017;28;20308;-54
2021/03/17 09:59:49;;;;;;;;;;;;;;;-144.01;100.00;62166.59;5035731;28;19917;-48
2021/03/17 10:02:19;;;;;;;;;;;;;;;-144.01;100.00;62166.59;5035568;28;19913;-48
2021/03/17 10:04:50;;;;;;;;;;;;;;;-144.01;100.00;62166.59;5034810;28;19913;-51
2021/03/17 10:07:27;;;;;;;;;;;;;;;-144.01;100.00;62166.59;5035416;28;19913;-49
2021/03/17 10:09:54;;;;;;;;;;;;;;;-144.01;100.00;62166.59;5035525;28;19924;-48
2021/03/17 10:12:21;;;;;;;;;;;;;;;-144.01;100.00;62166.59;5035094;28;19920;-50
2021/03/17 10:14:48;;;;;;;;;;;;;;;-144.01;100.00;62166.59;5035614;28;19916;-48
2021/03/17 10:17:16;;;;;;;;;;;;;;;-144.01;100.00;62166.59;5035651;28;19924;-47
2021/03/17 10:19:50;;;;;;;;;;;;;;;-144.01;100.00;62166.59;5035706;28;20035;-50
2021/03/17 10:22:17;;;;;;;;;;;;;;;-144.01;100.00;62166.59;5035204;28;20323;-52
2021/03/17 10:24:48;;;;;;;;;;;;;;;-144.01;100.00;62166.59;5018331;28;19924;-51
2021/03/17 10:27:19;;;;;;;;;;;;;;;-144.01;100.00;62166.59;5035477;28;19920;-49
2021/03/17 10:29:48;;;;;;;;;;;;;;;-144.01;100.00;62166.59;5035680;28;19917;-49
2021/03/17 10:32:22;;;;;;;;;;;;;;;-144.01;100.00;62166.59;5044367;28;19917;-46
2021/03/17 10:34:49;;;;;;;;;;;;;;;-144.01;100.00;62166.59;5031541;28;19917;-48
2021/03/17 10:37:20;;;;;;;;;;;;;;;-144.01;100.00;62166.59;5032355;28;19924;-48
2021/03/17 10:39:51;;;;;;;;;;;;;;;-144.01;100.00;62166.59;5035833;28;19913;-48
2021/03/17 10:42:25;;;;;;;;;;;;;;;-144.01;100.00;62166.59;5035612;28;19913;-50
2021/03/17 10:45:19;;;;;;;;;;;;;;;-144.01;100.00;62166.59;5034726;28;19913;-50
2021/03/17 10:47:46;;;;;;;;;;;;;;;-144.01;100.00;62166.59;5034685;28;19947;-47
2021/03/17 10:50:17;;;;;;;;;;;;;;;-144.01;100.00;62166.59;5035730;28;19924;-49
2021/03/17 10:52:45;;;;;;;;;;;;;;;-144.01;100.00;62166.59;5047715;28;19917;-52
2021/03/17 10:55:13;;;;;;;;;;;;;;;-144.01;100.00;62166.59;5035633;28;19913;-49
2021/03/17 10:57:40;;;;;;;;;;;;;;;-144.01;100.00;62166.59;5035492;28;19917;-47
2021/03/17 11:00:26;;;;;;;;;;;;;;;-144.01;100.00;62166.59;5032607;28;20304;-49
2021/03/17 11:02:53;;;;;;;;;;;;;;;-144.01;100.00;62166.59;5018060;28;19917;-48
2021/03/17 11:05:20;;;;;;;;;;;;;;;-144.01;100.00;62166.59;5026700;28;19913;-49
2021/03/17 11:07:51;;;;;;;;;;;;;;;-144.01;100.00;62166.59;5035119;28;19920;-48
2021/03/17 11:10:33;;;;;;;;;;;;;;;-144.01;100.00;62166.59;5034462;28;19913;-47
2021/03/17 11:13:02;;;;;;;;;;;;;;;-144.01;100.00;62166.59;5035675;28;19913;-50
2021/03/17 11:15:30;;;;;;;;;;;;;;;-144.01;100.00;62166.59;5034230;28;20223;-50
2021/03/17 11:17:58;;;;;;;;;;;;;;;-144.01;100.00;62166.59;5036081;28;19952;-51
2021/03/17 11:20:25;;;;;;;;;;;;;;;-144.01;100.00;62166.59;5039165;28;20324;-51
2021/03/17 11:22:53;;;;;;;;;;;;;;;-144.01;100.00;62166.59;5039136;28;19944;-52
2021/03/17 11:25:23;;;;;;;;;;;;;;;-144.01;100.00;62166.59;5038923;28;19913;-51
2021/03/17 11:27:50;;;;;;;;;;;;;;;-144.01;100.00;62166.59;5042731;28;19924;-54
2021/03/17 11:30:18;;;;;;;;;;;;;;;-144.01;100.00;62166.59;5019973;28;19924;-52
2021/03/17 11:32:45;;;;;;;;;;;;;;;-144.01;100.00;62166.59;5018882;28;19913;-52
2021/03/17 11:35:12;;;;;;;;;;;;;;;-144.01;100.00;62166.59;5032911;28;19912;-51
2021/03/17 11:37:39;;;;;;;;;;;;;;;-144.01;100.00;62166.59;5058081;28;19917;-51
2021/03/17 11:40:08;;;;;;;;;;;;;;;-144.01;100.00;62166.59;5058450;28;20231;-51
2021/03/17 11:42:35;;;;;;;;;;;;;;;-144.01;100.00;62166.59;5058422;28;20231;-51
2021/03/17 11:45:02;;;;;;;;;;;;;;;-144.01;100.00;62166.59;5058210;28;19920;-50
2021/03/17 11:47:29;;;;;;;;;;;;;;;-144.01;100.00;62166.59;5058166;28;19913;-50
2021/03/17 11:49:55;;;;;;;;;;;;;;;-144.01;100.00;62166.59;5058144;28;20247;-49
2021/03/17 11:52:22;;;;;;;;;;;;;;;-144.01;100.00;62166.59;5058247;28;19913;-50
2021/03/17 11:54:49;;;;;;;;;;;;;;;-144.01;100.00;62166.59;5058052;28;19913;-50
2021/03/17 11:57:16;;;;;;;;;;;;;;;-144.01;100.00;62166.59;5057751;28;19917;-53
2021/03/17 11:59:43;;;;;;;;;;;;;;;-144.01;100.00;62166.59;5028713;28;19921;-51
2021/03/17 12:02:10;;;;;;;;;;;;;;;-144.01;100.00;62166.59;5018377;28;20256;-55
2021/03/17 12:04:37;;;;;;;;;;;;;;;-144.01;100.00;62166.59;5018206;28;19920;-50
2021/03/17 12:07:08;;;;;;;;;;;;;;;-144.01;100.00;62166.59;5028437;28;20238;-52
2021/03/17 12:09:34;;;;;;;;;;;;;;;-144.01;100.00;62166.59;5037916;28;19913;-50
2021/03/17 12:12:02;;;;;;;;;;;;;;;-144.01;100.00;62166.59;5037881;28;19920;-50
2021/03/17 12:14:30;;;;;;;;;;;;;;;-144.01;100.00;62166.59;5036725;28;19913;-53
2021/03/17 12:16:57;;;;;;;;;;;;;;;-144.01;100.00;62166.59;5037666;28;19913;-51
2021/03/17 12:19:24;;;;;;;;;;;;;;;-144.01;100.00;62166.59;5037796;28;20299;-50
2021/03/17 12:21:51;;;;;;;;;;;;;;;-144.01;100.00;62166.59;5037685;28;19924;-52
2021/03/17 12:24:18;;;;;;;;;;;;;;;-144.01;100.00;62166.59;5037691;28;20318;-50
2021/03/17 12:26:44;;;;;;;;;;;;;;;-144.01;100.00;62166.59;5037318;28;19944;-52
2021/03/17 12:29:11;;;;;;;;;;;;;;;-144.01;100.00;62166.59;5037082;28;19921;-52
2021/03/17 12:31:38;;;;;;;;;;;;;;;-144.01;100.00;62166.59;5037755;28;20288;-51
2021/03/17 12:34:05;;;;;;;;;;;;;;;-144.01;100.00;62166.59;5037242;28;19932;-51